sensor_id;sensor_type;location;lat;lon;timestamp;P1;P2;P0
72307;PMS5003;60257;42.638;23.376;2024-02-26T00:00:00;27.00;23.00;14.00
72307;PMS5003;60257;42.638;23.376;2024-02-26T00:02:01;34.00;32.00;19.00
72307;PMS5003;60257;42.638;23.376;2024-02-26T00:04:01;29.00;26.33;16.00
72307;PMS5003;60257;42.638;23.376;2024-02-26T00:06:02;29.33;28.33;17.67
72307;PMS5003;60257;42.638;23.376;2024-02-26T00:08:03;36.33;31.00;18.00
72307;PMS5003;60257;42.638;23.376;2024-02-26T00:10:04;26.67;26.00;17.00
72307;PMS5003;60257;42.638;23.376;2024-02-26T00:12:04;26.67;25.33;17.33
72307;PMS5003;60257;42.638;23.376;2024-02-26T00:14:05;28.00;27.00;17.33
72307;PMS5003;60257;42.638;23.376;2024-02-26T00:16:05;29.00;26.33;17.67
72307;PMS5003;60257;42.638;23.376;2024-02-26T00:18:07;28.67;25.67;17.00
72307;PMS5003;60257;42.638;23.376;2024-02-26T00:20:07;29.33;28.33;17.67
72307;PMS5003;60257;42.638;23.376;2024-02-26T00:22:10;27.33;27.33;16.00
72307;PMS5003;60257;42.638;23.376;2024-02-26T00:24:10;31.00;30.00;19.00
72307;PMS5003;60257;42.638;23.376;2024-02-26T00:26:10;37.33;32.67;18.00
72307;PMS5003;60257;42.638;23.376;2024-02-26T00:28:11;29.33;28.67;16.67
72307;PMS5003;60257;42.638;23.376;2024-02-26T00:30:13;36.67;34.00;21.67
72307;PMS5003;60257;42.638;23.376;2024-02-26T00:32:14;27.67;26.33;16.00
72307;PMS5003;60257;42.638;23.376;2024-02-26T00:34:14;23.33;22.33;15.33
72307;PMS5003;60257;42.638;23.376;2024-02-26T00:36:14;30.33;28.33;17.67
72307;PMS5003;60257;42.638;23.376;2024-02-26T00:38:15;25.33;23.00;15.67
72307;PMS5003;60257;42.638;23.376;2024-02-26T00:40:15;28.00;28.00;16.33
72307;PMS5003;60257;42.638;23.376;2024-02-26T00:42:15;38.33;32.00;20.33
72307;PMS5003;60257;42.638;23.376;2024-02-26T00:44:16;38.33;35.33;19.33
72307;PMS5003;60257;42.638;23.376;2024-02-26T00:46:16;38.00;32.67;20.67
72307;PMS5003;60257;42.638;23.376;2024-02-26T00:48:17;30.33;26.33;18.33
72307;PMS5003;60257;42.638;23.376;2024-02-26T00:50:17;37.67;34.67;20.67
72307;PMS5003;60257;42.638;23.376;2024-02-26T00:52:17;40.33;35.67;22.00
72307;PMS5003;60257;42.638;23.376;2024-02-26T00:54:18;31.00;30.00;18.67
72307;PMS5003;60257;42.638;23.376;2024-02-26T00:56:18;49.33;40.67;26.67
72307;PMS5003;60257;42.638;23.376;2024-02-26T00:58:18;39.33;35.00;22.33
72307;PMS5003;60257;42.638;23.376;2024-02-26T01:00:19;43.33;38.00;23.67
72307;PMS5003;60257;42.638;23.376;2024-02-26T01:02:19;45.67;38.00;22.67
72307;PMS5003;60257;42.638;23.376;2024-02-26T01:04:20;44.33;38.33;24.00
72307;PMS5003;60257;42.638;23.376;2024-02-26T01:06:20;51.33;42.67;26.00
72307;PMS5003;60257;42.638;23.376;2024-02-26T01:08:22;48.00;40.33;26.00
72307;PMS5003;60257;42.638;23.376;2024-02-26T01:10:22;48.00;39.33;25.00
72307;PMS5003;60257;42.638;23.376;2024-02-26T01:12:22;47.33;41.00;26.67
72307;PMS5003;60257;42.638;23.376;2024-02-26T01:14:23;51.00;41.00;26.00
72307;PMS5003;60257;42.638;23.376;2024-02-26T01:16:23;42.67;37.00;24.33
72307;PMS5003;60257;42.638;23.376;2024-02-26T01:18:24;46.67;41.33;26.67
72307;PMS5003;60257;42.638;23.376;2024-02-26T01:20:24;36.33;31.67;21.00
72307;PMS5003;60257;42.638;23.376;2024-02-26T01:22:25;39.00;35.00;22.33
72307;PMS5003;60257;42.638;23.376;2024-02-26T01:24:25;32.00;30.67;21.00
72307;PMS5003;60257;42.638;23.376;2024-02-26T01:26:25;32.00;30.33;16.33
72307;PMS5003;60257;42.638;23.376;2024-02-26T01:28:26;36.00;33.33;20.00
72307;PMS5003;60257;42.638;23.376;2024-02-26T01:30:26;42.33;37.33;22.33
72307;PMS5003;60257;42.638;23.376;2024-02-26T01:32:26;38.00;36.00;22.33
72307;PMS5003;60257;42.638;23.376;2024-02-26T01:34:27;43.00;38.00;22.00
72307;PMS5003;60257;42.638;23.376;2024-02-26T01:36:27;34.00;33.33;21.00
72307;PMS5003;60257;42.638;23.376;2024-02-26T01:38:27;36.00;34.00;22.00
72307;PMS5003;60257;42.638;23.376;2024-02-26T01:40:28;39.33;35.00;23.00
72307;PMS5003;60257;42.638;23.376;2024-02-26T01:42:29;37.00;33.33;21.33
72307;PMS5003;60257;42.638;23.376;2024-02-26T01:44:32;39.67;35.33;22.00
72307;PMS5003;60257;42.638;23.376;2024-02-26T01:46:34;39.33;35.33;20.00
72307;PMS5003;60257;42.638;23.376;2024-02-26T01:48:36;36.33;31.33;16.67
72307;PMS5003;60257;42.638;23.376;2024-02-26T01:50:36;35.00;32.67;19.33
72307;PMS5003;60257;42.638;23.376;2024-02-26T01:52:38;35.67;34.67;20.67
72307;PMS5003;60257;42.638;23.376;2024-02-26T01:54:38;36.33;34.00;20.67
72307;PMS5003;60257;42.638;23.376;2024-02-26T01:56:40;31.00;29.00;16.00
72307;PMS5003;60257;42.638;23.376;2024-02-26T01:58:41;34.33;32.00;21.00
72307;PMS5003;60257;42.638;23.376;2024-02-26T02:00:43;24.67;23.00;12.33
72307;PMS5003;60257;42.638;23.376;2024-02-26T02:02:43;39.67;36.00;22.00
72307;PMS5003;60257;42.638;23.376;2024-02-26T02:04:46;38.33;33.67;20.00
72307;PMS5003;60257;42.638;23.376;2024-02-26T02:06:47;33.67;33.00;17.33
72307;PMS5003;60257;42.638;23.376;2024-02-26T02:08:48;35.00;32.00;20.67
72307;PMS5003;60257;42.638;23.376;2024-02-26T02:10:49;36.33;34.33;21.33
72307;PMS5003;60257;42.638;23.376;2024-02-26T02:12:50;28.33;28.33;15.33
72307;PMS5003;60257;42.638;23.376;2024-02-26T02:14:51;35.33;33.33;21.00
72307;PMS5003;60257;42.638;23.376;2024-02-26T02:16:51;27.00;27.00;15.67
72307;PMS5003;60257;42.638;23.376;2024-02-26T02:18:51;42.00;36.00;21.67
72307;PMS5003;60257;42.638;23.376;2024-02-26T02:20:53;40.67;37.33;23.00
72307;PMS5003;60257;42.638;23.376;2024-02-26T02:22:53;39.67;35.67;22.00
72307;PMS5003;60257;42.638;23.376;2024-02-26T02:24:54;41.67;37.00;22.00
72307;PMS5003;60257;42.638;23.376;2024-02-26T02:26:54;44.33;38.67;22.33
72307;PMS5003;60257;42.638;23.376;2024-02-26T02:28:55;46.67;40.00;25.00
72307;PMS5003;60257;42.638;23.376;2024-02-26T02:30:56;35.00;31.33;17.00
72307;PMS5003;60257;42.638;23.376;2024-02-26T02:32:57;40.00;36.00;19.67
72307;PMS5003;60257;42.638;23.376;2024-02-26T02:34:58;37.00;35.67;22.00
72307;PMS5003;60257;42.638;23.376;2024-02-26T02:36:59;38.00;32.67;22.00
72307;PMS5003;60257;42.638;23.376;2024-02-26T02:38:59;42.33;34.33;19.33
72307;PMS5003;60257;42.638;23.376;2024-02-26T02:41:00;38.67;36.33;24.33
72307;PMS5003;60257;42.638;23.376;2024-02-26T02:43:00;38.67;35.33;22.33
72307;PMS5003;60257;42.638;23.376;2024-02-26T02:45:02;42.33;38.00;22.00
72307;PMS5003;60257;42.638;23.376;2024-02-26T02:47:02;41.33;37.00;24.00
72307;PMS5003;60257;42.638;23.376;2024-02-26T02:49:03;42.67;38.00;23.00
72307;PMS5003;60257;42.638;23.376;2024-02-26T02:51:04;36.33;34.00;19.00
72307;PMS5003;60257;42.638;23.376;2024-02-26T02:53:05;38.67;36.00;21.67
72307;PMS5003;60257;42.638;23.376;2024-02-26T02:55:05;39.67;36.33;22.33
72307;PMS5003;60257;42.638;23.376;2024-02-26T02:57:06;36.00;32.33;23.00
72307;PMS5003;60257;42.638;23.376;2024-02-26T02:59:06;35.00;34.33;19.33
72307;PMS5003;60257;42.638;23.376;2024-02-26T03:01:06;37.33;35.67;22.67
72307;PMS5003;60257;42.638;23.376;2024-02-26T03:03:07;38.33;36.00;21.67
72307;PMS5003;60257;42.638;23.376;2024-02-26T03:05:07;41.67;36.33;22.00
72307;PMS5003;60257;42.638;23.376;2024-02-26T03:07:08;39.67;37.00;22.00
72307;PMS5003;60257;42.638;23.376;2024-02-26T03:09:08;47.00;39.00;22.33
72307;PMS5003;60257;42.638;23.376;2024-02-26T03:11:12;41.00;36.67;22.33
72307;PMS5003;60257;42.638;23.376;2024-02-26T03:13:13;41.67;35.33;22.00
72307;PMS5003;60257;42.638;23.376;2024-02-26T03:15:14;38.00;32.67;20.67
72307;PMS5003;60257;42.638;23.376;2024-02-26T03:17:14;37.00;34.67;19.00
72307;PMS5003;60257;42.638;23.376;2024-02-26T03:19:15;36.33;34.00;21.00
72307;PMS5003;60257;42.638;23.376;2024-02-26T03:21:16;39.33;35.67;23.00
72307;PMS5003;60257;42.638;23.376;2024-02-26T03:23:16;28.33;25.67;21.00
72307;PMS5003;60257;42.638;23.376;2024-02-26T03:25:17;39.00;35.67;22.33
72307;PMS5003;60257;42.638;23.376;2024-02-26T03:27:17;39.00;35.67;21.33
72307;PMS5003;60257;42.638;23.376;2024-02-26T03:29:18;42.67;38.00;24.33
72307;PMS5003;60257;42.638;23.376;2024-02-26T03:31:18;39.00;35.33;23.33
72307;PMS5003;60257;42.638;23.376;2024-02-26T03:33:19;38.00;35.00;22.00
72307;PMS5003;60257;42.638;23.376;2024-02-26T03:35:19;31.00;29.67;21.00
72307;PMS5003;60257;42.638;23.376;2024-02-26T03:37:19;31.67;29.67;18.00
72307;PMS5003;60257;42.638;23.376;2024-02-26T03:39:20;42.00;36.67;22.00
72307;PMS5003;60257;42.638;23.376;2024-02-26T03:41:20;41.00;35.00;22.00
72307;PMS5003;60257;42.638;23.376;2024-02-26T03:43:21;39.00;34.00;21.00
72307;PMS5003;60257;42.638;23.376;2024-02-26T03:45:21;33.33;33.33;19.33
72307;PMS5003;60257;42.638;23.376;2024-02-26T03:47:21;42.00;37.67;22.33
72307;PMS5003;60257;42.638;23.376;2024-02-26T03:49:22;40.00;36.00;22.67
72307;PMS5003;60257;42.638;23.376;2024-02-26T03:51:22;43.67;38.00;22.33
72307;PMS5003;60257;42.638;23.376;2024-02-26T03:53:22;39.00;35.67;22.67
72307;PMS5003;60257;42.638;23.376;2024-02-26T03:55:23;32.00;32.00;21.00
72307;PMS5003;60257;42.638;23.376;2024-02-26T03:57:25;43.33;36.67;22.67
72307;PMS5003;60257;42.638;23.376;2024-02-26T03:59:25;46.33;40.00;23.33
72307;PMS5003;60257;42.638;23.376;2024-02-26T04:01:26;44.00;38.33;23.67
72307;PMS5003;60257;42.638;23.376;2024-02-26T04:03:27;45.33;38.33;23.00
72307;PMS5003;60257;42.638;23.376;2024-02-26T04:05:27;50.00;39.33;24.33
72307;PMS5003;60257;42.638;23.376;2024-02-26T04:07:27;44.33;36.33;22.00
72307;PMS5003;60257;42.638;23.376;2024-02-26T04:09:28;36.33;34.00;21.33
72307;PMS5003;60257;42.638;23.376;2024-02-26T04:11:28;35.67;33.67;18.00
72307;PMS5003;60257;42.638;23.376;2024-02-26T04:13:28;41.33;36.33;21.00
72307;PMS5003;60257;42.638;23.376;2024-02-26T04:15:29;37.33;33.33;20.00
72307;PMS5003;60257;42.638;23.376;2024-02-26T04:17:30;41.33;37.33;22.33
72307;PMS5003;60257;42.638;23.376;2024-02-26T04:19:30;40.67;33.33;20.00
72307;PMS5003;60257;42.638;23.376;2024-02-26T04:21:30;37.00;34.00;19.33
72307;PMS5003;60257;42.638;23.376;2024-02-26T04:23:31;33.67;32.67;20.33
72307;PMS5003;60257;42.638;23.376;2024-02-26T04:25:31;33.33;31.33;16.33
72307;PMS5003;60257;42.638;23.376;2024-02-26T04:27:31;11.67;11.67;0.00
72307;PMS5003;60257;42.638;23.376;2024-02-26T04:29:32;31.33;30.67;15.00
72307;PMS5003;60257;42.638;23.376;2024-02-26T04:31:32;33.33;33.00;20.33
72307;PMS5003;60257;42.638;23.376;2024-02-26T04:33:35;34.67;33.67;20.00
72307;PMS5003;60257;42.638;23.376;2024-02-26T04:35:36;32.67;32.33;18.33
72307;PMS5003;60257;42.638;23.376;2024-02-26T04:37:36;32.67;29.33;19.00
72307;PMS5003;60257;42.638;23.376;2024-02-26T04:39:38;33.33;32.33;20.67
72307;PMS5003;60257;42.638;23.376;2024-02-26T04:41:38;34.00;30.33;19.00
72307;PMS5003;60257;42.638;23.376;2024-02-26T04:43:38;31.67;31.67;20.00
72307;PMS5003;60257;42.638;23.376;2024-02-26T04:45:41;37.33;35.67;22.00
72307;PMS5003;60257;42.638;23.376;2024-02-26T04:47:41;29.67;28.67;17.00
72307;PMS5003;60257;42.638;23.376;2024-02-26T04:49:42;39.00;34.00;18.00
72307;PMS5003;60257;42.638;23.376;2024-02-26T04:51:42;33.00;32.00;19.33
72307;PMS5003;60257;42.638;23.376;2024-02-26T04:53:42;35.33;34.00;20.00
72307;PMS5003;60257;42.638;23.376;2024-02-26T04:55:43;36.67;32.00;21.33
72307;PMS5003;60257;42.638;23.376;2024-02-26T04:57:43;35.67;34.00;19.33
72307;PMS5003;60257;42.638;23.376;2024-02-26T04:59:44;41.67;33.33;20.67
72307;PMS5003;60257;42.638;23.376;2024-02-26T05:01:45;24.00;20.67;9.33
72307;PMS5003;60257;42.638;23.376;2024-02-26T05:03:46;43.67;38.67;24.33
72307;PMS5003;60257;42.638;23.376;2024-02-26T05:05:46;39.00;35.00;25.00
72307;PMS5003;60257;42.638;23.376;2024-02-26T05:07:47;47.00;41.00;25.67
72307;PMS5003;60257;42.638;23.376;2024-02-26T05:09:47;51.00;44.00;27.50
72307;PMS5003;60257;42.638;23.376;2024-02-26T05:11:49;51.50;43.00;27.00
72307;PMS5003;60257;42.638;23.376;2024-02-26T05:13:50;50.75;42.75;26.50
72307;PMS5003;60257;42.638;23.376;2024-02-26T05:15:50;56.00;47.50;30.50
72307;PMS5003;60257;42.638;23.376;2024-02-26T05:17:52;63.00;51.00;32.00
72307;PMS5003;60257;42.638;23.376;2024-02-26T05:19:52;63.50;52.00;32.00
72307;PMS5003;60257;42.638;23.376;2024-02-26T05:21:53;50.75;43.00;25.50
72307;PMS5003;60257;42.638;23.376;2024-02-26T05:23:53;66.00;52.00;33.75
72307;PMS5003;60257;42.638;23.376;2024-02-26T05:25:54;64.00;52.75;34.50
72307;PMS5003;60257;42.638;23.376;2024-02-26T05:27:54;62.00;50.00;32.25
72307;PMS5003;60257;42.638;23.376;2024-02-26T05:29:55;67.00;55.00;35.00
72307;PMS5003;60257;42.638;23.376;2024-02-26T05:31:55;62.75;51.00;32.00
72307;PMS5003;60257;42.638;23.376;2024-02-26T05:33:55;62.00;51.50;32.75
72307;PMS5003;60257;42.638;23.376;2024-02-26T05:35:56;64.00;51.00;33.00
72307;PMS5003;60257;42.638;23.376;2024-02-26T05:37:56;62.25;50.00;32.75
72307;PMS5003;60257;42.638;23.376;2024-02-26T05:39:56;68.50;53.75;34.75
72307;PMS5003;60257;42.638;23.376;2024-02-26T05:41:58;63.00;50.00;31.25
72307;PMS5003;60257;42.638;23.376;2024-02-26T05:43:58;58.00;48.25;30.00
72307;PMS5003;60257;42.638;23.376;2024-02-26T05:45:59;63.75;50.75;33.00
72307;PMS5003;60257;42.638;23.376;2024-02-26T05:47:59;63.75;52.75;33.00
72307;PMS5003;60257;42.638;23.376;2024-02-26T05:49:59;59.25;47.50;28.75
72307;PMS5003;60257;42.638;23.376;2024-02-26T05:52:00;53.75;43.25;27.00
72307;PMS5003;60257;42.638;23.376;2024-02-26T05:54:01;53.75;46.25;29.50
72307;PMS5003;60257;42.638;23.376;2024-02-26T05:56:01;60.00;48.50;31.25
72307;PMS5003;60257;42.638;23.376;2024-02-26T05:58:02;57.75;47.00;31.25
72307;PMS5003;60257;42.638;23.376;2024-02-26T06:00:02;60.25;50.25;32.00
72307;PMS5003;60257;42.638;23.376;2024-02-26T06:02:04;56.00;45.50;27.25
72307;PMS5003;60257;42.638;23.376;2024-02-26T06:04:04;54.25;44.75;27.50
72307;PMS5003;60257;42.638;23.376;2024-02-26T06:06:05;54.00;45.00;29.00
72307;PMS5003;60257;42.638;23.376;2024-02-26T06:08:05;51.00;41.33;26.00
72307;PMS5003;60257;42.638;23.376;2024-02-26T06:10:07;44.67;40.00;26.33
72307;PMS5003;60257;42.638;23.376;2024-02-26T06:12:07;49.33;40.67;25.33
72307;PMS5003;60257;42.638;23.376;2024-02-26T06:14:08;48.00;40.33;24.00
72307;PMS5003;60257;42.638;23.376;2024-02-26T06:16:10;43.33;38.67;24.33
72307;PMS5003;60257;42.638;23.376;2024-02-26T06:18:10;35.67;34.33;22.00
72307;PMS5003;60257;42.638;23.376;2024-02-26T06:20:10;42.67;36.67;23.67
72307;PMS5003;60257;42.638;23.376;2024-02-26T06:22:12;49.33;39.33;24.33
72307;PMS5003;60257;42.638;23.376;2024-02-26T06:24:13;45.67;38.33;25.33
72307;PMS5003;60257;42.638;23.376;2024-02-26T06:26:13;47.33;40.33;26.00
72307;PMS5003;60257;42.638;23.376;2024-02-26T06:28:13;48.50;40.25;27.00
72307;PMS5003;60257;42.638;23.376;2024-02-26T06:30:14;51.25;43.00;27.25
72307;PMS5003;60257;42.638;23.376;2024-02-26T06:32:14;45.00;38.00;22.33
72307;PMS5003;60257;42.638;23.376;2024-02-26T06:34:15;44.00;39.00;24.33
72307;PMS5003;60257;42.638;23.376;2024-02-26T06:36:15;40.67;36.33;21.33
72307;PMS5003;60257;42.638;23.376;2024-02-26T06:38:16;47.67;39.00;25.33
72307;PMS5003;60257;42.638;23.376;2024-02-26T06:40:17;45.00;38.33;24.00
72307;PMS5003;60257;42.638;23.376;2024-02-26T06:42:18;50.00;40.00;26.00
72307;PMS5003;60257;42.638;23.376;2024-02-26T06:44:18;48.00;40.00;25.67
72307;PMS5003;60257;42.638;23.376;2024-02-26T06:46:18;55.67;44.67;27.00
72307;PMS5003;60257;42.638;23.376;2024-02-26T06:48:19;47.67;40.00;26.00
72307;PMS5003;60257;42.638;23.376;2024-02-26T06:50:19;44.75;39.00;24.75
72307;PMS5003;60257;42.638;23.376;2024-02-26T06:52:19;51.67;43.67;26.67
72307;PMS5003;60257;42.638;23.376;2024-02-26T06:54:20;48.33;40.33;24.33
72307;PMS5003;60257;42.638;23.376;2024-02-26T06:56:20;46.67;40.00;25.33
72307;PMS5003;60257;42.638;23.376;2024-02-26T06:58:21;43.00;37.67;24.33
72307;PMS5003;60257;42.638;23.376;2024-02-26T07:00:21;43.00;39.00;23.00
72307;PMS5003;60257;42.638;23.376;2024-02-26T07:02:21;39.33;36.00;24.33
72307;PMS5003;60257;42.638;23.376;2024-02-26T07:04:22;36.00;34.00;23.00
72307;PMS5003;60257;42.638;23.376;2024-02-26T07:06:22;47.33;39.00;24.33
72307;PMS5003;60257;42.638;23.376;2024-02-26T07:08:23;41.67;37.33;22.00
72307;PMS5003;60257;42.638;23.376;2024-02-26T07:10:23;41.00;34.00;22.00
72307;PMS5003;60257;42.638;23.376;2024-02-26T07:12:23;41.00;36.33;23.67
72307;PMS5003;60257;42.638;23.376;2024-02-26T07:14:24;39.00;36.00;22.00
72307;PMS5003;60257;42.638;23.376;2024-02-26T07:16:24;30.67;30.67;19.33
72307;PMS5003;60257;42.638;23.376;2024-02-26T07:18:26;50.00;43.00;30.00
72307;PMS5003;60257;42.638;23.376;2024-02-26T07:20:26;33.33;30.67;19.00
72307;PMS5003;60257;42.638;23.376;2024-02-26T07:22:27;41.00;36.67;22.67
72307;PMS5003;60257;42.638;23.376;2024-02-26T07:24:27;36.33;33.00;23.67
72307;PMS5003;60257;42.638;23.376;2024-02-26T07:26:28;32.33;32.33;20.00
72307;PMS5003;60257;42.638;23.376;2024-02-26T07:28:30;41.67;36.33;23.33
72307;PMS5003;60257;42.638;23.376;2024-02-26T07:30:31;42.00;37.00;23.67
72307;PMS5003;60257;42.638;23.376;2024-02-26T07:32:31;41.33;34.67;21.00
72307;PMS5003;60257;42.638;23.376;2024-02-26T07:34:31;34.00;33.00;21.67
72307;PMS5003;60257;42.638;23.376;2024-02-26T07:36:32;34.00;32.00;18.67
72307;PMS5003;60257;42.638;23.376;2024-02-26T07:38:32;35.33;33.00;21.00
72307;PMS5003;60257;42.638;23.376;2024-02-26T07:40:32;36.00;31.00;17.67
72307;PMS5003;60257;42.638;23.376;2024-02-26T07:42:33;34.67;33.00;20.00
72307;PMS5003;60257;42.638;23.376;2024-02-26T07:44:33;31.67;30.00;16.33
72307;PMS5003;60257;42.638;23.376;2024-02-26T07:46:34;38.33;35.00;21.67
72307;PMS5003;60257;42.638;23.376;2024-02-26T07:48:34;35.00;32.00;19.33
72307;PMS5003;60257;42.638;23.376;2024-02-26T07:50:34;34.00;32.67;18.67
72307;PMS5003;60257;42.638;23.376;2024-02-26T07:52:35;33.00;32.00;20.67
72307;PMS5003;60257;42.638;23.376;2024-02-26T07:54:35;26.00;26.00;18.00
72307;PMS5003;60257;42.638;23.376;2024-02-26T07:56:35;29.00;26.33;17.67
72307;PMS5003;60257;42.638;23.376;2024-02-26T07:58:36;21.67;19.33;14.33
72307;PMS5003;60257;42.638;23.376;2024-02-26T08:00:36;29.00;27.67;17.67
72307;PMS5003;60257;42.638;23.376;2024-02-26T08:02:37;29.00;22.00;15.00
72307;PMS5003;60257;42.638;23.376;2024-02-26T08:04:37;18.67;18.33;10.00
72307;PMS5003;60257;42.638;23.376;2024-02-26T08:06:38;23.67;23.00;14.00
72307;PMS5003;60257;42.638;23.376;2024-02-26T08:08:38;23.33;23.33;14.67
72307;PMS5003;60257;42.638;23.376;2024-02-26T08:10:38;20.33;20.33;15.33
72307;PMS5003;60257;42.638;23.376;2024-02-26T08:12:39;21.33;18.33;12.67
72307;PMS5003;60257;42.638;23.376;2024-02-26T08:14:39;23.33;21.67;13.67
72307;PMS5003;60257;42.638;23.376;2024-02-26T08:16:39;20.00;18.67;14.00
72307;PMS5003;60257;42.638;23.376;2024-02-26T08:18:40;22.33;22.33;11.33
72307;PMS5003;60257;42.638;23.376;2024-02-26T08:20:40;26.00;24.33;14.33
72307;PMS5003;60257;42.638;23.376;2024-02-26T08:22:41;23.00;20.00;11.33
72307;PMS5003;60257;42.638;23.376;2024-02-26T08:24:41;25.67;25.00;16.00
72307;PMS5003;60257;42.638;23.376;2024-02-26T08:26:42;28.00;26.00;15.67
72307;PMS5003;60257;42.638;23.376;2024-02-26T08:28:42;26.67;25.67;16.67
72307;PMS5003;60257;42.638;23.376;2024-02-26T08:30:43;23.67;23.00;15.00
72307;PMS5003;60257;42.638;23.376;2024-02-26T08:32:44;24.67;23.67;13.33
72307;PMS5003;60257;42.638;23.376;2024-02-26T08:34:48;25.33;22.67;13.33
72307;PMS5003;60257;42.638;23.376;2024-02-26T08:36:48;24.00;21.67;15.67
72307;PMS5003;60257;42.638;23.376;2024-02-26T08:38:50;27.00;26.00;18.00
72307;PMS5003;60257;42.638;23.376;2024-02-26T08:40:51;27.33;26.00;17.67
72307;PMS5003;60257;42.638;23.376;2024-02-26T08:42:51;26.67;25.33;14.33
72307;PMS5003;60257;42.638;23.376;2024-02-26T08:44:51;32.33;30.00;21.00
72307;PMS5003;60257;42.638;23.376;2024-02-26T08:46:54;30.33;26.00;15.67
72307;PMS5003;60257;42.638;23.376;2024-02-26T08:48:55;30.67;27.33;18.67
72307;PMS5003;60257;42.638;23.376;2024-02-26T08:50:55;26.00;22.67;16.00
72307;PMS5003;60257;42.638;23.376;2024-02-26T08:52:55;24.33;24.00;15.00
72307;PMS5003;60257;42.638;23.376;2024-02-26T08:54:56;18.00;18.00;10.00
72307;PMS5003;60257;42.638;23.376;2024-02-26T08:56:57;17.33;16.33;11.00
72307;PMS5003;60257;42.638;23.376;2024-02-26T08:58:57;18.00;16.67;11.00
72307;PMS5003;60257;42.638;23.376;2024-02-26T09:00:59;27.33;26.00;17.00
72307;PMS5003;60257;42.638;23.376;2024-02-26T09:02:59;16.67;15.00;10.00
72307;PMS5003;60257;42.638;23.376;2024-02-26T09:05:00;27.67;25.00;14.67
72307;PMS5003;60257;42.638;23.376;2024-02-26T09:07:01;29.00;25.67;15.33
72307;PMS5003;60257;42.638;23.376;2024-02-26T09:09:02;27.00;26.00;16.67
72307;PMS5003;60257;42.638;23.376;2024-02-26T09:11:04;26.67;26.00;16.67
72307;PMS5003;60257;42.638;23.376;2024-02-26T09:13:04;25.00;25.00;16.00
72307;PMS5003;60257;42.638;23.376;2024-02-26T09:15:06;25.00;25.00;15.00
72307;PMS5003;60257;42.638;23.376;2024-02-26T09:17:07;23.67;22.00;13.67
72307;PMS5003;60257;42.638;23.376;2024-02-26T09:19:07;17.33;17.00;11.00
72307;PMS5003;60257;42.638;23.376;2024-02-26T09:21:08;16.00;16.00;10.00
72307;PMS5003;60257;42.638;23.376;2024-02-26T09:23:08;25.33;23.00;14.67
72307;PMS5003;60257;42.638;23.376;2024-02-26T09:25:09;22.33;22.33;12.00
72307;PMS5003;60257;42.638;23.376;2024-02-26T09:27:10;21.33;20.00;11.33
72307;PMS5003;60257;42.638;23.376;2024-02-26T09:29:10;22.00;22.00;13.67
72307;PMS5003;60257;42.638;23.376;2024-02-26T09:31:10;18.00;17.33;12.00
72307;PMS5003;60257;42.638;23.376;2024-02-26T09:33:11;23.67;21.00;12.33
72307;PMS5003;60257;42.638;23.376;2024-02-26T09:35:11;20.33;19.00;12.00
72307;PMS5003;60257;42.638;23.376;2024-02-26T09:37:13;20.00;18.67;13.00
72307;PMS5003;60257;42.638;23.376;2024-02-26T09:39:13;25.67;22.67;15.00
72307;PMS5003;60257;42.638;23.376;2024-02-26T09:41:17;16.00;16.00;11.00
72307;PMS5003;60257;42.638;23.376;2024-02-26T09:43:17;21.33;19.00;11.67
72307;PMS5003;60257;42.638;23.376;2024-02-26T09:45:23;24.67;23.33;14.00
72307;PMS5003;60257;42.638;23.376;2024-02-26T09:47:28;23.00;22.67;13.00
72307;PMS5003;60257;42.638;23.376;2024-02-26T09:49:31;15.33;15.00;11.67
72307;PMS5003;60257;42.638;23.376;2024-02-26T09:51:32;23.67;23.00;14.33
72307;PMS5003;60257;42.638;23.376;2024-02-26T09:53:32;21.00;20.33;15.00
72307;PMS5003;60257;42.638;23.376;2024-02-26T09:55:33;25.00;22.00;11.67
72307;PMS5003;60257;42.638;23.376;2024-02-26T09:57:33;26.33;25.00;16.00
72307;PMS5003;60257;42.638;23.376;2024-02-26T09:59:38;24.33;24.33;14.00
72307;PMS5003;60257;42.638;23.376;2024-02-26T10:01:40;23.00;22.33;13.33
72307;PMS5003;60257;42.638;23.376;2024-02-26T10:03:42;18.00;18.00;12.00
72307;PMS5003;60257;42.638;23.376;2024-02-26T10:05:44;23.00;20.67;14.33
72307;PMS5003;60257;42.638;23.376;2024-02-26T10:07:45;28.00;26.33;17.67
72307;PMS5003;60257;42.638;23.376;2024-02-26T10:09:46;16.67;16.67;11.00
72307;PMS5003;60257;42.638;23.376;2024-02-26T10:11:46;23.00;23.00;15.67
72307;PMS5003;60257;42.638;23.376;2024-02-26T10:13:48;21.67;21.67;15.67
72307;PMS5003;60257;42.638;23.376;2024-02-26T10:15:49;26.00;23.00;16.00
72307;PMS5003;60257;42.638;23.376;2024-02-26T10:17:49;23.67;22.00;14.67
72307;PMS5003;60257;42.638;23.376;2024-02-26T10:19:50;25.67;23.33;16.33
72307;PMS5003;60257;42.638;23.376;2024-02-26T10:21:58;23.67;23.67;16.33
72307;PMS5003;60257;42.638;23.376;2024-02-26T10:24:00;23.00;23.00;15.33
72307;PMS5003;60257;42.638;23.376;2024-02-26T10:26:00;23.00;23.00;13.00
72307;PMS5003;60257;42.638;23.376;2024-02-26T10:28:01;22.25;21.75;12.75
72307;PMS5003;60257;42.638;23.376;2024-02-26T10:30:17;22.33;21.00;14.00
72307;PMS5003;60257;42.638;23.376;2024-02-26T10:32:21;17.00;17.00;12.00
72307;PMS5003;60257;42.638;23.376;2024-02-26T10:34:21;21.33;21.33;14.33
72307;PMS5003;60257;42.638;23.376;2024-02-26T10:36:23;20.00;20.00;13.00
72307;PMS5003;60257;42.638;23.376;2024-02-26T10:38:26;21.33;21.33;13.67
72307;PMS5003;60257;42.638;23.376;2024-02-26T10:40:26;22.00;19.75;14.00
72307;PMS5003;60257;42.638;23.376;2024-02-26T10:42:26;19.00;18.00;11.00
72307;PMS5003;60257;42.638;23.376;2024-02-26T10:44:27;20.00;19.00;14.00
72307;PMS5003;60257;42.638;23.376;2024-02-26T10:46:27;21.50;21.50;14.50
72307;PMS5003;60257;42.638;23.376;2024-02-26T10:48:27;23.50;21.50;14.00
72307;PMS5003;60257;42.638;23.376;2024-02-26T10:50:28;25.33;24.33;16.00
72307;PMS5003;60257;42.638;23.376;2024-02-26T10:52:30;24.00;23.25;13.50
72307;PMS5003;60257;42.638;23.376;2024-02-26T10:54:35;20.67;20.67;14.67
72307;PMS5003;60257;42.638;23.376;2024-02-26T10:56:41;20.00;20.00;13.00
72307;PMS5003;60257;42.638;23.376;2024-02-26T10:58:43;24.00;24.00;15.00
72307;PMS5003;60257;42.638;23.376;2024-02-26T11:00:46;22.25;21.50;13.75
72307;PMS5003;60257;42.638;23.376;2024-02-26T11:02:49;18.75;18.00;14.00
72307;PMS5003;60257;42.638;23.376;2024-02-26T11:04:51;19.50;19.50;13.75
72307;PMS5003;60257;42.638;23.376;2024-02-26T11:06:52;21.00;21.00;14.00